createdAt,value
2019-04-14T00:01:41.272Z,83.80
2019-04-14T00:06:37.820Z,83.56
2019-04-14T00:11:34.408Z,84.41
2019-04-14T00:16:29.219Z,83.57
2019-04-14T00:21:23.828Z,83.76
2019-04-14T00:26:29.367Z,84.67
2019-04-14T00:31:24.293Z,83.43
2019-04-14T00:36:37.232Z,84.26
2019-04-14T00:41:46.719Z,83.01
2019-04-14T00:46:40.856Z,83.98
2019-04-14T00:51:38.262Z,84.06
2019-04-14T00:56:32.336Z,84.74
2019-04-14T01:01:26.971Z,84.92
2019-04-14T01:06:22.841Z,86.11
2019-04-14T01:11:18.181Z,85.12
2019-04-14T01:16:17.425Z,85.10
2019-04-14T01:21:09.313Z,85.59
2019-04-14T01:26:05.048Z,85.43
2019-04-14T01:30:59.740Z,84.27
2019-04-14T01:35:55.285Z,84.65
2019-04-14T01:40:50.999Z,85.12
2019-04-14T01:45:58.169Z,85.99
2019-04-14T01:50:49.651Z,86.12
2019-04-14T01:55:54.905Z,84.82
2019-04-14T02:00:57.618Z,85.02
2019-04-14T02:05:52.401Z,85.10
2019-04-14T02:10:47.805Z,85.13
2019-04-14T02:15:42.713Z,84.49
2019-04-14T02:20:38.198Z,84.97
2019-04-14T02:25:33.902Z,85.03
2019-04-14T02:30:36.277Z,85.12
2019-04-14T02:35:56.188Z,85.37
2019-04-14T02:40:55.914Z,84.34
2019-04-14T02:45:50.573Z,84.64
2019-04-14T02:50:45.188Z,85.04
2019-04-14T02:55:46.863Z,85.15
2019-04-14T03:05:35.853Z,83.87
2019-04-14T03:10:31.950Z,84.83
2019-04-14T03:15:35.349Z,84.47
2019-04-14T03:20:32.182Z,84.31
2019-04-14T03:25:22.751Z,84.76
2019-04-14T03:40:58.515Z,85.44
2019-04-14T03:45:45.131Z,84.67
2019-04-14T03:55:22.278Z,85.31
2019-04-14T04:00:03.568Z,84.95
2019-04-14T04:04:58.342Z,84.33
2019-04-14T04:09:54.588Z,84.14
2019-04-14T04:14:49.183Z,84.50
2019-04-14T04:19:45.418Z,85.07
2019-04-14T04:24:44.097Z,83.69
2019-04-14T04:29:44.124Z,84.72
2019-04-14T04:34:40.339Z,83.98
2019-04-14T04:39:39.773Z,84.38
2019-04-14T04:44:35.666Z,83.98
2019-04-14T04:49:31.262Z,84.16
2019-04-14T04:54:27.862Z,83.74
2019-04-14T04:59:23.437Z,83.42
2019-04-14T05:04:18.231Z,84.48
2019-04-14T05:09:14.499Z,86.55
2019-04-14T05:14:10.922Z,87.40
2019-04-14T05:19:18.559Z,88.25
2019-04-14T05:24:02.840Z,88.54
2019-04-14T05:28:57.455Z,89.31
2019-04-14T05:33:53.238Z,90.29
2019-04-14T05:38:48.120Z,90.43
2019-04-14T05:43:49.765Z,89.46
2019-04-14T05:48:40.288Z,89.51
2019-04-14T05:53:35.137Z,89.61
2019-04-14T05:58:29.793Z,88.63
2019-04-14T06:03:25.566Z,88.47
2019-04-14T06:08:20.331Z,88.47
2019-04-14T06:13:14.991Z,88.22
2019-04-14T06:18:09.637Z,88.22
2019-04-14T06:23:04.291Z,88.26
2019-04-14T06:27:58.963Z,88.66
2019-04-14T06:32:54.095Z,88.82
2019-04-14T06:37:58.966Z,88.88
2019-04-14T06:42:53.560Z,88.87
2019-04-14T06:47:48.157Z,88.82
2019-04-14T06:52:42.748Z,87.18
2019-04-14T06:57:37.349Z,86.89
2019-04-14T07:02:31.922Z,86.69
2019-04-14T07:07:26.506Z,87.57
2019-04-14T07:12:21.127Z,87.77
2019-04-14T07:17:15.717Z,87.26
2019-04-14T07:22:10.309Z,87.26
2019-04-14T07:27:04.974Z,88.11
2019-04-14T07:32:17.227Z,88.23
2019-04-14T07:37:29.204Z,87.59
2019-04-14T07:42:31.252Z,87.08
2019-04-14T07:47:45.282Z,86.73
2019-04-14T07:52:41.508Z,82.05
2019-04-14T07:57:40.144Z,84.00
2019-04-14T08:02:36.373Z,85.33
2019-04-14T08:07:30.975Z,85.72
2019-04-14T08:12:25.570Z,85.14
2019-04-14T08:17:20.171Z,84.66
2019-04-14T08:22:14.768Z,81.89
2019-04-14T08:27:09.359Z,85.32
2019-04-14T08:32:04.038Z,83.95
2019-04-14T08:36:58.638Z,83.52
2019-04-14T08:42:06.344Z,82.70
2019-04-14T08:47:11.349Z,81.88
2019-04-14T08:52:09.994Z,83.53
2019-04-14T08:57:06.775Z,83.14
2019-04-14T09:02:04.020Z,83.04
2019-04-14T09:07:15.086Z,83.25
2019-04-14T09:12:20.034Z,83.51
2019-04-14T09:17:14.607Z,83.73
2019-04-14T09:22:09.363Z,81.52
2019-04-14T09:27:03.957Z,80.09
2019-04-14T09:31:59.235Z,78.25
2019-04-14T09:36:53.827Z,78.62
2019-04-14T09:41:48.414Z,77.38
2019-04-14T09:46:43.030Z,75.54
2019-04-14T09:51:37.624Z,75.64
2019-04-14T09:56:32.221Z,76.22
2019-04-14T10:01:26.854Z,78.51
2019-04-14T10:06:21.511Z,75.85
2019-04-14T10:11:16.104Z,78.02
2019-04-14T10:16:10.857Z,72.68
2019-04-14T10:21:16.698Z,72.06
2019-04-14T10:26:01.840Z,72.80
2019-04-14T10:30:56.446Z,74.53
2019-04-14T10:35:51.045Z,73.77
2019-04-14T10:40:45.628Z,74.98
2019-04-14T10:45:40.211Z,75.59
2019-04-14T10:50:34.881Z,73.37
2019-04-14T10:55:29.470Z,74.49
2019-04-14T11:00:24.060Z,74.83
2019-04-14T11:05:18.662Z,74.20
2019-04-14T11:10:14.063Z,75.54
2019-04-14T11:15:10.867Z,74.55
2019-04-14T11:20:10.101Z,76.95
2019-04-14T11:25:06.500Z,76.61
2019-04-14T11:30:01.163Z,76.46
2019-04-14T11:35:00.258Z,77.09
2019-04-14T11:39:54.868Z,76.42
2019-04-14T11:44:49.470Z,75.08
2019-04-14T11:49:44.127Z,76.07
2019-04-14T11:54:38.903Z,77.46
2019-04-14T11:59:35.166Z,77.16
2019-04-14T12:04:31.456Z,77.07
2019-04-14T12:09:39.751Z,75.40
2019-04-14T12:14:34.339Z,77.01
2019-04-14T12:19:28.946Z,76.32
2019-04-14T12:24:23.578Z,76.86
2019-04-14T12:29:18.899Z,78.69
2019-04-14T12:34:14.603Z,78.74
2019-04-14T12:39:19.799Z,80.13
2019-04-14T12:44:32.107Z,80.46
2019-04-14T12:49:31.161Z,80.70
2019-04-14T12:54:27.042Z,80.76
2019-04-14T12:59:23.674Z,80.55
2019-04-14T13:04:18.445Z,81.25
2019-04-14T13:09:14.571Z,81.03
2019-04-14T13:14:09.588Z,80.74
2019-04-14T13:19:04.256Z,81.23
2019-04-14T13:23:58.933Z,81.83
2019-04-14T13:28:53.533Z,81.20
2019-04-14T13:33:48.117Z,81.74
2019-04-14T13:38:42.728Z,82.86
2019-04-14T13:43:37.308Z,83.46
2019-04-14T13:48:31.983Z,84.17
2019-04-14T13:53:26.643Z,84.11
2019-04-14T13:58:21.310Z,84.50
2019-04-14T14:03:15.944Z,84.56
2019-04-14T14:08:10.686Z,83.76
2019-04-14T14:13:10.101Z,83.97
2019-04-14T14:18:12.237Z,84.47
2019-04-14T14:23:15.733Z,84.39
2019-04-14T14:28:10.353Z,84.41
2019-04-14T14:33:05.305Z,83.15
2019-04-14T14:37:59.972Z,83.25
2019-04-14T14:42:54.736Z,84.24
2019-04-14T14:47:53.884Z,84.54
2019-04-14T14:52:48.559Z,84.83
2019-04-14T14:57:43.214Z,85.25
2019-04-14T15:02:38.072Z,85.75
2019-04-14T15:07:32.694Z,85.23
2019-04-14T15:12:27.356Z,84.73
2019-04-14T15:17:22.101Z,84.90
2019-04-14T15:22:16.793Z,84.96
2019-04-14T15:27:11.511Z,85.42
2019-04-14T15:32:06.287Z,85.71
2019-04-14T15:37:01.238Z,85.21
2019-04-14T15:41:56.083Z,85.02
2019-04-14T15:46:50.955Z,84.69
2019-04-14T15:51:45.812Z,84.76
2019-04-14T15:56:49.493Z,84.99
2019-04-14T16:01:57.684Z,84.36
2019-04-14T16:06:56.724Z,84.59
2019-04-14T16:12:11.004Z,85.10
2019-04-14T16:17:13.278Z,84.34
2019-04-14T16:22:08.261Z,83.96
2019-04-14T16:27:23.107Z,83.60
2019-04-14T16:32:25.465Z,84.47
2019-04-14T16:37:20.443Z,84.36
2019-04-14T16:42:15.350Z,84.92
2019-04-14T16:47:10.329Z,85.31
2019-04-14T16:52:11.177Z,84.51
2019-04-14T16:57:09.029Z,84.25
2019-04-14T17:02:10.702Z,84.46
2019-04-14T17:07:00.579Z,84.74
2019-04-14T17:11:55.502Z,85.01
2019-04-14T17:16:57.631Z,83.69
2019-04-14T17:21:57.160Z,83.76
2019-04-14T17:26:59.161Z,83.82
2019-04-14T17:32:05.523Z,84.06
2019-04-14T17:37:05.919Z,84.34
2019-04-14T17:42:18.675Z,84.42
2019-04-14T17:47:16.042Z,83.80
2019-04-14T17:52:28.638Z,84.73
2019-04-14T17:57:26.742Z,85.01
2019-04-14T18:02:31.913Z,84.65
2019-04-14T18:07:37.047Z,84.86
2019-04-14T18:12:33.621Z,85.21
2019-04-14T18:17:30.213Z,85.40
2019-04-14T18:22:25.212Z,85.63
2019-04-14T18:27:20.125Z,85.43
2019-04-14T18:32:16.727Z,86.02
2019-04-14T18:37:29.231Z,85.65
2019-04-14T18:42:25.777Z,85.70
2019-04-14T18:47:22.329Z,85.96
2019-04-14T18:52:18.876Z,85.35
2019-04-14T18:57:18.108Z,86.30
2019-04-14T19:02:13.181Z,86.68
2019-04-14T19:07:08.094Z,86.58
2019-04-14T19:12:20.701Z,86.55
2019-04-14T19:17:19.628Z,85.70
2019-04-14T19:22:14.544Z,86.00
2019-04-14T19:27:09.452Z,86.04
2019-04-14T19:32:04.369Z,86.20
2019-04-14T19:36:59.275Z,85.93
2019-04-14T19:41:54.240Z,86.38
2019-04-14T19:46:49.465Z,86.49
2019-04-14T19:51:44.526Z,86.38
2019-04-14T19:56:39.455Z,85.96
2019-04-14T20:01:34.358Z,85.78
2019-04-14T20:06:29.254Z,86.71
2019-04-14T20:11:24.306Z,86.33
2019-04-14T20:16:30.616Z,86.20
2019-04-14T20:21:41.898Z,86.85
2019-04-14T20:26:53.166Z,86.28
2019-04-14T20:31:52.674Z,86.69
2019-04-14T20:36:47.643Z,86.44
2019-04-14T20:41:42.824Z,86.31
2019-04-14T20:46:37.620Z,86.29
2019-04-14T20:51:32.570Z,86.08
2019-04-14T20:56:27.264Z,86.22
2019-04-14T21:01:22.320Z,86.33
2019-04-14T21:06:34.942Z,85.60
2019-04-14T21:11:31.326Z,85.14
2019-04-14T21:16:27.564Z,85.76
2019-04-14T21:21:40.120Z,86.09
2019-04-14T21:26:36.344Z,86.88
2019-04-14T21:31:33.034Z,86.99
2019-04-14T21:36:32.221Z,87.03
2019-04-14T21:41:31.342Z,87.16
2019-04-14T21:46:25.951Z,87.06
2019-04-14T21:51:22.179Z,87.47
2019-04-14T21:56:16.781Z,87.76
2019-04-14T22:01:36.209Z,88.10
2019-04-14T22:06:35.140Z,87.54
2019-04-14T22:11:29.802Z,87.14
2019-04-14T22:16:24.401Z,87.41
2019-04-14T22:21:19.264Z,87.73
2019-04-14T22:26:25.490Z,87.31
2019-04-14T22:31:10.352Z,87.03
2019-04-14T22:36:05.235Z,87.13
2019-04-14T22:40:59.832Z,87.10
2019-04-14T22:45:54.430Z,87.35
2019-04-14T22:50:49.011Z,86.88
2019-04-14T22:55:43.597Z,86.58
2019-04-14T23:00:40.849Z,86.56
2019-04-14T23:05:49.219Z,85.98
2019-04-14T23:10:49.517Z,86.13
2019-04-14T23:15:54.428Z,88.01
2019-04-14T23:21:06.935Z,89.53
2019-04-14T23:26:01.525Z,89.86
2019-04-14T23:30:56.111Z,90.36
2019-04-14T23:35:50.924Z,90.66
2019-04-14T23:40:45.592Z,90.67
2019-04-14T23:45:40.241Z,90.30
2019-04-14T23:50:34.846Z,90.14
2019-04-14T23:55:29.436Z,90.26
